x

Seal Rocks - Between Montague And Hinchinbrook Islands, Ak (46061) Wave Buoy

10:50pm - Thu 2nd Jul 2015 All times are AKDT. -8 hours from GMT.

  • Sig Wave height 3.6ft
  • Swell Direction
  • Peak Period 10s
  • Average Period 7s
  • Wind
    9mph, 11mph gusts
  • Sea Temp 59°f
  • Air Temp 58°f
  • Sea Pressure 1019mb
  • Seal Rocks - Between Montague And Hinchinbrook Islands, Ak
  • Seal Rocks - Between Montague And Hinchinbrook Islands, Ak

More Historic Weather Station data

Upgrade to MSW Pro to gain access to the past 30 days of data for over 8000 Wavebouys and Weather Stations around the globe.

Join Pro

Comparision Forecast

View Surf forecast
   
Thu 07/02 10:50pm 3.5ft 10s 7s 9 11 mph 1019mb 59f 58f
9:50pm 4ft 10s 8s 4 7 mph 1018.4mb 59f 58f
8:50pm 3.5ft 10s 7s 2
mph
1017.9mb 60f 59f
7:50pm 3ft 9s 8s 2
mph
1017.4mb 59f 60f
6:50pm 3ft 10s 8s 2 4 mph 1017mb 59f 60f
5:50pm 3ft 11s 7s  -  2 mph 1016.5mb 58f 59f
4:50pm 3ft 10s 7s 2 4 mph 1016mb 59f 59f
3:50pm 3ft 9s 7s  -  2 mph 1015.5mb 58f 59f
2:50pm 3ft 9s 7s 4
mph
1014.7mb 58f 58f
1:50pm 2.5ft 9s 6s 7 9 mph 1014.2mb 57f 58f
12:50pm 2.5ft 6s 6s 11 13 mph 1013.5mb 57f 58f
11:50am 2ft 5s 5s 11 13 mph 1013mb 57f 58f
10:50am 1.6ft 5s 5s 9 11 mph 1012.7mb 57f 57f
9:50am 1.6ft 11s 5s 11 13 mph 1012.3mb 57f 57f
8:50am 1.6ft 16s 6s 11 13 mph 1011.9mb 56f 58f
7:50am 1.3ft 14s 6s 11 13 mph 1011.5mb 56f 56f
6:50am 1.3ft 13s 6s 11 16 mph 1011.2mb 56f 57f
5:50am 1.3ft 13s 7s 7 11 mph 1011.1mb 56f 60f
4:50am 1.3ft 15s 7s 4 9 mph 1010.9mb 56f 57f
3:50am 1.6ft 14s 6s 9 11 mph 1010.9mb 56f 60f
2:50am 2ft 14s 6s 11 13 mph 1011mb 56f 60f
1:50am 2ft 12s 6s 13 16 mph 1011.3mb 57f 56f
12:50am 2ft 14s 6s 11 13 mph 1012.1mb 57f 56f
Wed 07/01 11:50pm 2ft 14s 6s 11 13 mph 1013.2mb 57f 56f
10:50pm 2ft 13s 6s 7 9 mph 1014mb 57f 56f
9:50pm 2ft 14s 6s 7
mph
1014.8mb 57f 57f
8:50pm 2ft 15s 6s 7
mph
1015.6mb 57f 57f
7:50pm 2ft 13s 6s 7
mph
1016.4mb 58f 56f
6:50pm 1.6ft 14s 6s 7
mph
1017.3mb 58f 56f
5:50pm 2ft 14s 7s 7 9 mph 1018.1mb 58f 56f
4:50pm 2ft 15s 6s 11
mph
1018.7mb 58f 55f
3:50pm 2ft 15s 6s 13 16 mph 1019.5mb 58f 55f
2:50pm 2ft 13s 6s 9
mph
1020mb 58f 55f
1:50pm 2ft 14s 6s  -  2 mph 1020.7mb 58f 56f
12:50pm 2.5ft 15s 6s 4 7 mph 1021.4mb 57f 54f
11:50am 2.5ft 15s 6s 7
mph
1021.8mb 56f 54f
10:50am 2.5ft 6s 5s 11 13 mph 1022.1mb 57f 54f
9:50am 2.5ft 6s 5s 9 13 mph 1022.6mb 56f 53f
8:50am 2.5ft 6s 5s 13 16 mph 1022.9mb 56f 53f
7:50am 2.5ft 7s 5s 11 13 mph 1023mb 56f 54f
6:50am 2.5ft 7s 5s 9 11 mph 1023.2mb 56f 53f
5:50am 2.5ft 7s 5s 9 11 mph 1023.4mb 56f 53f
4:50am 3ft 14s 5s 13 16 mph 1023.3mb 56f 53f
3:50am 2.5ft 14s 5s 16 18 mph 1023.2mb 56f 53f
2:50am 2.5ft 6s 5s 16 20 mph 1023.1mb 56f 54f
1:50am 2.5ft 16s 6s 13 18 mph 1023.2mb 56f 54f
12:50am 2.5ft 15s 6s 7 9 mph 1023.5mb 56f 53f
Tue 06/30 11:50pm 2.5ft 6s 6s 7
mph
1023.5mb 57f 54f
10:50pm 2.5ft 6s 5s 9 11 mph 1023.5mb 57f 54f
9:50pm 2.5ft 6s 5s 9 11 mph 1023.4mb 57f 54f
8:50pm 2.5ft 6s 5s 13 16 mph 1023.3mb 57f 55f
7:50pm 2.5ft 6s 5s 9 11 mph 1023.3mb 57f 55f
6:50pm 3ft 6s 5s 11 13 mph 1023.1mb 57f 55f
5:50pm 2.5ft 14s 5s 13 16 mph 1022.9mb 57f 55f
4:50pm 2.5ft 6s 5s 11 13 mph 1022.8mb 57f 55f
3:50pm 2.5ft 6s 5s 11 13 mph 1022.7mb 57f 55f
2:50pm 2.5ft 6s 5s 11
mph
1022.4mb 57f 55f
1:50pm 2.5ft 14s 5s 11 13 mph 1022.2mb 57f 55f
12:50pm 2.5ft 6s 5s 11 13 mph 1022mb 57f 55f
11:50am 2.5ft 5s 4s 11 13 mph 1021.6mb 57f 55f
10:50am 2.5ft 5s 4s 13 16 mph 1021.5mb 56f 55f
9:50am 2.5ft 5s 4s 13 18 mph 1021.2mb 56f 54f
8:50am 2.5ft 6s 4s 16 20 mph 1020.7mb 56f 55f
7:50am 2.5ft 5s 4s 9 11 mph 1020.5mb 56f 53f
6:50am 3.5ft 5s 5s 11 13 mph 1020mb 56f 54f
5:50am 3.5ft 5s 5s 13 16 mph 1019.5mb 56f 54f
4:50am 3.5ft 6s 5s 13 16 mph 1018.8mb 57f 54f
3:50am 3ft 5s 4s 13 16 mph 1018.4mb 57f 54f
2:50am 2.5ft 6s 4s 22 29 mph 1017.7mb 57f 55f
1:50am 2.5ft 6s 4s 22 29 mph 1017.8mb 57f 55f
12:50am 2.5ft 6s 4s 20 25 mph 1017.8mb 57f 56f
Mon 06/29 11:50pm 2.5ft 6s 4s 22 27 mph 1017.7mb 57f 55f
10:50pm 2.5ft 6s 5s 16 20 mph 1017.8mb 57f 55f
9:50pm 2.5ft 6s 5s 16 18 mph 1017.7mb 57f 56f
8:50pm 2.5ft 6s 5s 13 16 mph 1017.5mb 57f 56f
7:50pm 2.5ft 7s 5s 11
mph
1017.5mb 57f 55f
6:50pm 2.5ft 6s 5s 11 13 mph 1017.3mb 57f 55f
5:50pm 2.5ft 7s 5s 13 16 mph 1017.1mb 57f 55f
4:50pm 2.5ft 7s 5s 13 16 mph 1016.6mb 57f 55f
3:50pm 2.5ft 7s 5s 13 16 mph 1016.3mb 57f 55f
2:50pm 2.5ft 7s 5s 16 20 mph 1016mb 57f 54f
1:50pm 2.5ft 7s 6s 13 16 mph 1015.6mb 57f 55f
12:50pm 2.5ft 6s 6s 11 13 mph 1015.1mb 57f 55f
11:50am 2.5ft 7s 5s 11 13 mph 1014.8mb 57f 55f
10:50am 3ft 6s 5s 11 13 mph 1014.7mb 57f 55f
9:50am 3ft 7s 5s 9 11 mph 1014.6mb 57f 56f
8:50am 3ft 7s 5s 9 11 mph 1014.7mb 57f 55f
7:50am 4ft 7s 5s 4 7 mph 1014.8mb 56f 55f